createdAt,value
2014-11-07T00:00:07.600Z,100686
2014-11-07T00:00:25.838Z,100692
2014-11-07T00:00:44.072Z,100686
2014-11-07T00:01:02.306Z,100695
2014-11-07T00:01:20.541Z,100683
2014-11-07T00:01:38.777Z,100692
2014-11-07T00:01:57.011Z,100686
2014-11-07T00:02:15.246Z,100689
2014-11-07T00:02:33.482Z,100689
2014-11-07T00:02:51.717Z,100683
2014-11-07T00:03:09.951Z,100689
2014-11-07T00:03:28.185Z,100695
2014-11-07T00:03:46.422Z,100698
2014-11-07T00:04:04.672Z,100692
2014-11-07T00:04:22.890Z,100686
2014-11-07T00:04:41.129Z,100686
2014-11-07T00:04:59.363Z,100695
2014-11-07T00:05:17.613Z,100686
2014-11-07T00:05:35.848Z,100692
2014-11-07T00:05:54.084Z,100689
2014-11-07T00:06:12.318Z,100692
2014-11-07T00:06:30.553Z,100680
2014-11-07T00:06:48.805Z,100686
2014-11-07T00:07:07.039Z,100689
2014-11-07T00:07:25.273Z,100695
2014-11-07T00:07:43.508Z,100683
2014-11-07T00:08:01.745Z,100686
2014-11-07T00:08:19.980Z,100680
2014-11-07T00:08:38.230Z,100686
2014-11-07T00:08:56.466Z,100698
2014-11-07T00:09:14.700Z,100680
2014-11-07T00:09:32.935Z,100678
2014-11-07T00:09:51.169Z,100686
2014-11-07T00:10:09.406Z,100689
2014-11-07T00:10:27.641Z,100680
2014-11-07T00:10:45.875Z,100686
2014-11-07T00:11:04.112Z,100680
2014-11-07T00:11:22.346Z,100669
2014-11-07T00:11:40.596Z,100680
2014-11-07T00:11:58.830Z,100675
2014-11-07T00:12:17.067Z,100669
2014-11-07T00:12:35.301Z,100675
2014-11-07T00:12:53.535Z,100680
2014-11-07T00:13:11.773Z,100666
2014-11-07T00:13:30.007Z,100666
2014-11-07T00:13:48.242Z,100680
2014-11-07T00:14:06.476Z,100680
2014-11-07T00:14:24.712Z,100675
2014-11-07T00:14:42.947Z,100678
2014-11-07T00:15:01.197Z,100680
2014-11-07T00:15:19.434Z,100686
2014-11-07T00:15:37.668Z,100680
2014-11-07T00:15:55.903Z,100669
2014-11-07T00:16:14.137Z,100683
2014-11-07T00:16:32.390Z,100680
2014-11-07T00:16:50.609Z,100669
2014-11-07T00:17:08.843Z,100683
2014-11-07T00:17:27.080Z,100678
2014-11-07T00:17:45.314Z,100666
2014-11-07T00:18:03.548Z,100669
2014-11-07T00:18:21.783Z,100680
2014-11-07T00:18:40.019Z,100675
2014-11-07T00:18:58.254Z,100678
2014-11-07T00:19:16.488Z,100678
2014-11-07T00:19:34.725Z,100675
2014-11-07T00:19:52.960Z,100675
2014-11-07T00:20:11.194Z,100680
2014-11-07T06:57:19.226Z,100503
2014-11-07T06:57:37.476Z,100509
2014-11-07T06:57:55.729Z,100506
2014-11-07T06:58:14.057Z,100509
2014-11-07T06:58:32.245Z,100509
2014-11-07T06:58:50.495Z,100511
2014-11-07T06:59:08.731Z,100509
2014-11-07T06:59:26.981Z,100514
2014-11-07T06:59:45.216Z,100503
2014-11-07T07:00:03.468Z,100509
2014-11-07T07:00:21.702Z,100503
2014-11-07T07:00:39.952Z,100511
2014-11-07T07:00:58.188Z,100514
2014-11-07T07:01:16.438Z,100503
2014-11-07T07:01:34.673Z,100509
2014-11-07T07:01:52.907Z,100506
2014-11-07T07:02:11.160Z,100520
2014-11-07T07:02:29.395Z,100509
2014-11-07T07:02:47.645Z,100509
2014-11-07T07:03:05.881Z,100506
2014-11-07T07:03:24.115Z,100512
2014-11-07T07:03:42.350Z,100512
2014-11-07T07:04:00.587Z,100517
2014-11-07T07:04:18.837Z,100514
2014-11-07T07:04:37.071Z,100506
2014-11-07T07:04:55.306Z,100506
2014-11-07T07:05:13.542Z,100523
2014-11-07T07:05:31.792Z,100517
2014-11-07T07:05:50.027Z,100523
2014-11-07T07:06:08.263Z,100514
2014-11-07T07:06:26.513Z,100526
2014-11-07T07:06:44.747Z,100514
2014-11-07T07:07:02.997Z,100512
2014-11-07T07:07:21.235Z,100514
2014-11-07T07:07:39.469Z,100514
2014-11-07T07:07:57.844Z,100520
2014-11-07T07:08:16.081Z,100526
2014-11-07T07:08:34.331Z,100523
2014-11-07T07:08:52.566Z,100523
2014-11-07T07:09:10.800Z,100529
2014-11-07T07:09:29.115Z,100520
2014-11-07T07:09:47.318Z,100523
2014-11-07T07:10:05.568Z,100523
2014-11-07T07:10:23.804Z,100523
2014-11-07T07:10:41.945Z,100532
2014-11-07T07:11:00.164Z,100529
2014-11-07T07:11:18.414Z,100529
2014-11-07T07:11:36.651Z,100526
2014-11-07T07:11:54.885Z,100540
2014-11-07T07:12:13.135Z,100532
2014-11-07T07:12:31.388Z,100529
2014-11-07T07:12:49.623Z,100532
2014-11-07T07:13:07.873Z,100538
2014-11-07T07:13:26.154Z,100538
2014-11-07T07:13:44.374Z,100532
2014-11-07T07:14:02.624Z,100532
2014-11-07T07:14:20.858Z,100518
2014-11-07T07:14:39.111Z,100526
2014-11-07T07:14:57.361Z,100532
2014-11-07T07:15:15.595Z,100538
2014-11-07T07:15:33.830Z,100523
2014-11-07T07:15:52.083Z,100526
2014-11-07T07:16:10.317Z,100532
2014-11-07T07:16:28.552Z,100535
2014-11-07T07:16:46.804Z,100515
2014-11-07T07:17:05.038Z,100518
2014-11-07T07:17:23.288Z,100529
2014-11-07T07:17:41.522Z,100526
2014-11-07T14:58:54.999Z,100305
2014-11-07T14:59:13.249Z,100303
2014-11-07T14:59:31.499Z,100305
2014-11-07T14:59:49.752Z,100303
2014-11-07T15:00:08.002Z,100305
2014-11-07T15:00:26.252Z,100314
2014-11-07T15:00:44.502Z,100311
2014-11-07T15:01:02.754Z,100303
2014-11-07T15:01:21.066Z,100308
2014-11-07T15:01:39.316Z,100308
2014-11-07T15:01:57.569Z,100300
2014-11-07T15:02:15.819Z,100303
2014-11-07T15:02:34.069Z,100303
2014-11-07T15:02:52.319Z,100311
2014-11-07T15:03:10.571Z,100306
2014-11-07T15:03:28.837Z,100308
2014-11-07T15:03:47.087Z,100300
2014-11-07T15:04:05.340Z,100308
2014-11-07T15:04:23.574Z,100311
2014-11-07T15:04:41.840Z,100311
2014-11-07T15:05:00.106Z,100308
2014-11-07T15:05:18.436Z,100303
2014-11-07T15:05:36.592Z,100306
2014-11-07T15:05:54.842Z,100314
2014-11-07T15:06:13.094Z,100311
2014-11-07T15:06:31.344Z,100306
2014-11-07T15:06:49.594Z,100311
2014-11-07T15:07:07.844Z,100308
2014-11-07T15:07:26.097Z,100308
2014-11-07T15:07:44.363Z,100311
2014-11-07T15:08:02.613Z,100306
2014-11-07T15:08:20.865Z,100306
2014-11-07T15:08:39.161Z,100308
2014-11-07T15:08:57.411Z,100308
2014-11-07T15:09:15.661Z,100306
2014-11-07T15:09:33.914Z,100317
2014-11-07T15:09:52.164Z,100306
2014-11-07T15:10:10.414Z,100306
2014-11-07T15:10:28.667Z,100309
2014-11-07T15:10:46.917Z,100309
2014-11-07T15:11:05.167Z,100309
2014-11-07T15:11:23.417Z,100306
2014-11-07T15:11:41.715Z,100311
2014-11-07T15:11:59.950Z,100309
2014-11-07T15:12:18.247Z,100314
2014-11-07T15:12:36.500Z,100303
2014-11-07T15:12:58.093Z,100309
2014-11-07T15:13:16.343Z,100303
2014-11-07T15:13:34.611Z,100314
2014-11-07T15:13:52.877Z,100309
2014-11-07T15:14:11.111Z,100303
2014-11-07T15:14:29.364Z,100306
2014-11-07T15:14:47.630Z,100303
2014-11-07T15:15:05.880Z,100314
2014-11-07T15:15:24.145Z,100306
2014-11-07T15:15:42.397Z,100317
2014-11-07T15:16:00.647Z,100300
2014-11-07T15:16:18.897Z,100306
2014-11-07T15:16:37.150Z,100314
2014-11-07T15:16:55.400Z,100306
2014-11-07T15:17:13.650Z,100306
2014-11-07T15:17:31.902Z,100314
2014-11-07T15:17:50.152Z,100306
2014-11-07T15:18:08.402Z,100306
2014-11-07T15:18:26.652Z,100306
2014-11-07T15:18:44.904Z,100306
2014-11-07T15:19:03.154Z,100300
2014-11-07T15:19:21.404Z,100297
2014-11-07T15:19:39.657Z,100300
2014-11-07T15:19:57.907Z,100309
2014-11-07T15:20:16.157Z,100306
2014-11-07T15:20:34.407Z,100309
2014-11-07T15:20:52.659Z,100306
2014-11-07T15:21:10.909Z,100312
2014-11-07T15:21:29.159Z,100312
2014-11-07T15:21:47.412Z,100309
2014-11-07T15:22:05.647Z,100303
2014-11-07T15:22:23.912Z,100306
2014-11-07T15:22:42.162Z,100312
2014-11-07T15:23:00.414Z,100309
2014-11-07T15:23:18.664Z,100312
2014-11-07T15:23:36.914Z,100312
2014-11-07T15:23:55.167Z,100309
2014-11-07T15:24:13.417Z,100315
2014-11-07T15:24:31.683Z,100312
2014-11-07T15:24:49.933Z,100320
2014-11-07T15:25:08.185Z,100312
2014-11-07T15:25:26.435Z,100320
2014-11-07T15:25:44.685Z,100317
2014-11-07T15:26:02.937Z,100315
2014-11-07T15:26:21.187Z,100312
2014-11-07T15:26:39.437Z,100323
2014-11-07T15:26:57.687Z,100312
2014-11-07T15:27:15.940Z,100312
2014-11-07T15:27:34.190Z,100303
2014-11-07T15:27:52.440Z,100306
2014-11-07T15:28:10.692Z,100317
2014-11-07T15:28:28.942Z,100309
2014-11-07T15:28:47.192Z,100317
2014-11-07T15:29:05.426Z,100303
2014-11-07T15:29:23.679Z,100312
2014-11-07T15:29:41.929Z,100315
2014-11-07T15:30:00.179Z,100315
2014-11-07T15:30:18.431Z,100309
2014-11-07T15:30:36.681Z,100317
2014-11-07T15:30:54.931Z,100315
2014-11-07T15:31:13.181Z,100320
2014-11-07T15:31:31.434Z,100323
2014-11-07T15:31:49.669Z,100332
2014-11-07T15:32:07.919Z,100326
2014-11-07T15:32:26.171Z,100312
2014-11-07T15:32:44.421Z,100317
2014-11-07T15:33:02.671Z,100323
2014-11-07T15:33:20.905Z,100323
2014-11-07T15:33:39.173Z,100318
2014-11-07T15:33:57.423Z,100320
2014-11-07T15:34:15.673Z,100320
2014-11-07T15:34:33.926Z,100323
2014-11-07T15:34:52.176Z,100332
2014-11-07T15:35:10.426Z,100320
2014-11-07T15:35:28.676Z,100312
2014-11-07T15:35:46.928Z,100315
2014-11-07T15:36:05.178Z,100315
2014-11-07T15:36:23.428Z,100315
2014-11-07T15:36:41.680Z,100320
2014-11-07T15:36:59.930Z,100315
2014-11-07T15:37:18.180Z,100315
2014-11-07T15:37:36.430Z,100320
2014-11-07T15:37:54.683Z,100306
2014-11-07T15:38:12.933Z,100312
2014-11-07T15:38:31.183Z,100318
2014-11-07T15:38:49.435Z,100320
2014-11-07T15:39:07.685Z,100320
2014-11-07T15:39:25.935Z,100320
2014-11-07T15:39:44.185Z,100315
2014-11-07T15:40:02.438Z,100323
2014-11-07T15:40:20.688Z,100320
2014-11-07T15:40:38.938Z,100318
2014-11-07T15:40:57.190Z,100318
2014-11-07T15:41:15.440Z,100323
2014-11-07T15:41:33.690Z,100318
2014-11-07T15:41:51.940Z,100315
2014-11-07T15:42:10.193Z,100312
2014-11-07T15:42:28.443Z,100323
2014-11-07T15:42:46.693Z,100312
2014-11-07T15:43:04.945Z,100312
2014-11-07T15:43:23.195Z,100315
2014-11-07T15:43:41.445Z,100320
2014-11-07T15:43:59.695Z,100323
2014-11-07T15:44:17.948Z,100312
2014-11-07T15:44:36.198Z,100318
2014-11-07T15:44:54.448Z,100312
2014-11-07T15:45:12.700Z,100315
2014-11-07T15:45:30.950Z,100320
2014-11-07T15:45:49.200Z,100318
2014-11-07T15:46:07.450Z,100323
2014-11-07T15:46:25.703Z,100323
2014-11-07T15:46:43.953Z,100332
2014-11-07T15:47:02.203Z,100337
2014-11-07T15:47:20.455Z,100326
2014-11-07T15:47:38.705Z,100337
2014-11-07T15:47:56.970Z,100337
2014-11-07T15:48:15.205Z,100340
2014-11-07T15:48:33.458Z,100326
2014-11-07T15:48:51.708Z,100335
2014-11-07T15:49:09.958Z,100337
2014-11-07T15:49:28.210Z,100340
2014-11-07T15:49:46.460Z,100345
2014-11-07T15:50:04.741Z,100335
2014-11-07T15:50:22.991Z,100340
2014-11-07T15:50:41.244Z,100340
2014-11-07T15:50:59.494Z,100337
2014-11-07T15:51:17.744Z,100337
2014-11-07T15:51:35.997Z,100335
2014-11-07T15:51:54.262Z,100332
2014-11-07T15:52:12.512Z,100326
2014-11-07T15:52:30.762Z,100323
2014-11-07T15:52:49.013Z,100321
2014-11-07T15:53:07.279Z,100332
2014-11-07T15:53:25.529Z,100332
2014-11-07T15:53:43.782Z,100323
2014-11-07T15:54:02.032Z,100326
2014-11-07T15:54:20.282Z,100332
2014-11-07T15:54:38.532Z,100326
2014-11-07T15:54:56.785Z,100323
2014-11-07T15:55:15.035Z,100326
2014-11-07T15:55:33.285Z,100332
2014-11-07T15:55:51.537Z,100326
2014-11-07T15:56:09.787Z,100335
2014-11-07T15:56:28.053Z,100332
2014-11-07T15:56:46.287Z,100335
2014-11-07T15:57:04.540Z,100340
2014-11-07T15:57:22.790Z,100326
2014-11-07T15:57:41.040Z,100326
2014-11-07T15:57:59.292Z,100337
2014-11-07T15:58:17.542Z,100332
2014-11-07T15:58:35.792Z,100323
2014-11-07T15:58:54.042Z,100323
2014-11-07T15:59:12.295Z,100318
2014-11-07T15:59:30.545Z,100335
2014-11-07T15:59:48.795Z,100340
2014-11-07T16:00:07.047Z,100335
2014-11-07T16:00:25.297Z,100318
2014-11-07T16:00:43.547Z,100340
2014-11-07T16:04:32.150Z,100335
2014-11-07T16:04:50.400Z,100321
2014-11-07T16:05:08.652Z,100332
2014-11-07T16:05:26.886Z,100335
2014-11-07T16:05:45.136Z,100335
2014-11-07T16:06:03.388Z,100332
2014-11-07T16:06:21.638Z,100321
2014-11-07T16:06:39.888Z,100335
2014-11-07T16:06:58.141Z,100321
2014-11-07T16:07:16.391Z,100326
2014-11-07T16:07:34.641Z,100326
2014-11-07T16:07:52.891Z,100335
2014-11-07T16:08:11.143Z,100326
2014-11-07T16:08:29.393Z,100332
2014-11-07T16:08:47.643Z,100340
2014-11-07T16:09:05.895Z,100335
2014-11-07T16:09:24.145Z,100318
2014-11-07T16:09:42.395Z,100332
2014-11-07T16:10:00.647Z,100335
2014-11-07T16:10:18.897Z,100335
2014-11-07T16:10:37.132Z,100321
2014-11-07T16:10:55.385Z,100335
2014-11-07T16:11:13.635Z,100323
2014-11-07T16:11:31.869Z,100332
2014-11-07T16:11:50.119Z,100321
2014-11-07T16:12:08.371Z,100318
2014-11-07T16:12:26.605Z,100323
2014-11-07T16:12:44.855Z,100321
2014-11-07T16:13:03.093Z,100326
2014-11-07T16:13:21.343Z,100318
2014-11-07T16:13:39.577Z,100318
2014-11-07T16:13:57.829Z,100326
2014-11-07T16:14:16.079Z,100315
2014-11-07T16:14:34.329Z,100315
2014-11-07T16:14:52.563Z,100318
2014-11-07T16:15:10.815Z,100326
2014-11-07T16:15:29.065Z,100326
2014-11-07T16:15:47.315Z,100318
2014-11-07T16:16:05.553Z,100332
2014-11-07T16:16:23.803Z,100323
2014-11-07T16:16:42.037Z,100312
2014-11-07T16:17:00.289Z,100323
2014-11-07T16:17:18.539Z,100320
2014-11-07T16:17:36.774Z,100320
2014-11-07T16:17:55.024Z,100318
2014-11-07T16:18:13.276Z,100326
2014-11-07T16:18:31.526Z,100312
2014-11-07T16:18:49.760Z,100320
2014-11-07T16:19:08.012Z,100318
2014-11-07T16:19:26.262Z,100320
2014-11-07T16:19:44.512Z,100306
2014-11-07T16:20:02.748Z,100309
2014-11-07T16:20:20.998Z,100309
2014-11-07T16:20:39.233Z,100312
2014-11-07T16:20:57.485Z,100320
2014-11-07T16:21:15.735Z,100318
2014-11-07T16:21:33.985Z,100315
2014-11-07T16:21:52.235Z,100315
2014-11-07T16:22:10.472Z,100312
2014-11-07T16:22:28.722Z,100315
2014-11-07T16:22:46.956Z,100312
2014-11-07T16:23:05.208Z,100315
2014-11-07T16:23:23.458Z,100303
2014-11-07T16:23:41.693Z,100309
2014-11-07T16:23:59.945Z,100315
2014-11-07T16:24:18.179Z,100306
2014-11-07T16:24:36.429Z,100315
2014-11-07T16:24:54.679Z,100312
2014-11-07T16:25:12.932Z,100309
2014-11-07T16:25:31.167Z,100298
2014-11-07T16:25:49.417Z,100303
2014-11-07T16:26:07.653Z,100298
2014-11-07T16:26:25.903Z,100306
2014-11-07T16:26:44.153Z,100309
2014-11-07T16:27:02.387Z,100303
2014-11-07T16:27:20.640Z,100315
2014-11-07T16:27:38.875Z,100306
2014-11-07T16:27:57.125Z,100306
2014-11-07T16:28:15.377Z,100309
2014-11-07T16:28:33.627Z,100306
2014-11-07T16:28:51.861Z,100309
2014-11-07T16:29:10.111Z,100306
2014-11-07T16:29:28.364Z,100312
2014-11-07T16:29:46.598Z,100298
2014-11-07T16:30:04.848Z,100292
2014-11-07T16:30:23.101Z,100300
2014-11-07T16:30:41.351Z,100303
2014-11-07T16:30:59.601Z,100312
2014-11-07T16:31:17.851Z,100300
2014-11-07T16:31:36.088Z,100297
2014-11-07T16:31:54.338Z,100300
2014-11-07T16:32:12.572Z,100300
2014-11-07T16:32:30.825Z,100295
2014-11-07T16:32:49.060Z,100306
2014-11-07T16:33:07.310Z,100306
2014-11-07T16:33:25.544Z,100292
2014-11-07T16:33:43.796Z,100300
2014-11-07T16:34:02.030Z,100295
2014-11-07T16:34:20.280Z,100292
2014-11-07T16:34:38.518Z,100295
2014-11-07T16:34:56.768Z,100306
2014-11-07T16:35:15.002Z,100295
2014-11-07T16:35:33.252Z,100306
2014-11-07T16:35:51.488Z,100300
2014-11-07T16:36:09.738Z,100317
2014-11-07T16:36:27.973Z,100312
2014-11-07T16:36:46.225Z,100306
2014-11-07T16:37:04.459Z,100312
2014-11-07T16:37:22.709Z,100312
2014-11-07T16:37:40.944Z,100323
2014-11-07T16:37:59.196Z,100315
2014-11-07T16:38:17.430Z,100317
2014-11-07T16:38:35.680Z,100317
2014-11-07T16:38:53.917Z,100320
2014-11-07T16:39:12.167Z,100317
2014-11-07T16:39:30.402Z,100312
2014-11-07T16:39:48.652Z,100332
2014-11-07T16:40:06.889Z,100326
2014-11-07T16:40:25.123Z,100326
2014-11-07T16:40:43.373Z,100317
2014-11-07T16:41:01.626Z,100317
2014-11-07T16:41:19.861Z,100315
2014-11-07T16:41:38.095Z,100326
2014-11-07T16:41:56.345Z,100312
2014-11-07T16:42:14.597Z,100320
2014-11-07T16:42:32.832Z,100315
2014-11-07T16:42:51.082Z,100320
2014-11-07T16:43:09.334Z,100306
2014-11-07T16:43:27.584Z,100312
2014-11-07T16:43:45.834Z,100317
2014-11-07T16:44:04.068Z,100315
2014-11-07T16:44:22.305Z,100326
2014-11-07T16:44:40.555Z,100309
2014-11-07T16:44:58.805Z,100312
2014-11-07T16:45:17.057Z,100320
2014-11-07T16:45:35.307Z,100315
2014-11-07T16:45:53.542Z,100315
2014-11-07T16:46:11.792Z,100315
2014-11-07T16:46:30.028Z,100312
2014-11-07T16:46:48.278Z,100309
2014-11-07T16:47:06.528Z,100306
2014-11-07T16:47:24.765Z,100312
2014-11-07T16:47:43.015Z,100312
2014-11-07T16:48:01.250Z,100320
2014-11-07T16:48:19.500Z,100312
2014-11-07T16:48:37.736Z,100317
2014-11-07T16:48:55.986Z,100309
2014-11-07T16:49:14.236Z,100306
2014-11-07T16:49:32.489Z,100317
2014-11-07T16:49:50.724Z,100312
2014-11-07T16:50:08.974Z,100309
2014-11-07T16:50:27.224Z,100317
2014-11-07T16:50:45.460Z,100306
2014-11-07T16:51:03.710Z,100309
2014-11-07T16:51:21.960Z,100300
2014-11-07T16:51:40.197Z,100315
2014-11-07T16:51:58.447Z,100320
2014-11-07T16:52:16.682Z,100315
2014-11-07T16:52:34.932Z,100312
2014-11-07T16:52:53.184Z,100309
2014-11-07T16:53:11.434Z,100314
2014-11-07T16:53:29.668Z,100312
2014-11-07T16:53:47.921Z,100309
2014-11-07T16:54:06.171Z,100312
2014-11-07T16:54:24.405Z,100312
2014-11-07T16:54:42.655Z,100314
2014-11-07T16:55:00.907Z,100314
2014-11-07T16:55:19.142Z,100306
2014-11-07T16:55:37.392Z,100306
2014-11-07T16:55:55.644Z,100309
2014-11-07T16:56:13.878Z,100314
2014-11-07T16:56:32.128Z,100312
2014-11-07T16:56:50.378Z,100320
2014-11-07T16:57:08.616Z,100317
2014-11-07T16:57:26.866Z,100317
2014-11-07T16:57:45.100Z,100314
2014-11-07T16:58:03.352Z,100314
2014-11-07T16:58:21.586Z,100314
2014-11-07T16:58:39.836Z,100309
2014-11-07T16:58:58.086Z,100314
2014-11-07T16:59:16.323Z,100314
2014-11-07T16:59:34.573Z,100317
2014-11-07T16:59:52.807Z,100320
2014-11-07T17:00:11.060Z,100323
2014-11-07T17:00:29.310Z,100314
2014-11-07T17:00:47.544Z,100323
2014-11-07T17:01:05.794Z,100326
2014-11-07T17:01:24.046Z,100312
2014-11-07T17:01:42.281Z,100317
2014-11-07T17:02:00.531Z,100332
2014-11-07T17:02:18.784Z,100317
2014-11-07T17:02:37.018Z,100323
2014-11-07T17:02:55.268Z,100323
2014-11-07T17:03:13.503Z,100323
2014-11-07T17:03:31.755Z,100320
2014-11-07T17:03:49.989Z,100320
2014-11-07T17:04:08.255Z,100320
2014-11-07T17:04:26.492Z,100323
2014-11-07T17:04:44.726Z,100335
2014-11-07T17:05:02.976Z,100335
2014-11-07T17:05:21.226Z,100332
2014-11-07T17:05:39.463Z,100332
2014-11-07T17:05:57.713Z,100335
2014-11-07T17:06:15.963Z,100326
2014-11-07T17:06:34.200Z,100336
2014-11-07T17:06:52.450Z,100323
2014-11-07T17:07:10.700Z,100332
2014-11-07T17:07:28.934Z,100323
2014-11-07T17:07:47.186Z,100339
2014-11-07T17:08:05.436Z,100332
2014-11-07T17:08:23.671Z,100335
2014-11-07T17:08:41.924Z,100336
2014-11-07T17:09:00.174Z,100345
2014-11-07T17:09:18.408Z,100335
2014-11-07T17:09:36.658Z,100332
2014-11-07T17:09:54.896Z,100335
2014-11-07T17:10:13.146Z,100332
2014-11-07T17:10:31.396Z,100336
2014-11-07T17:10:49.631Z,100332
2014-11-07T17:11:07.881Z,100326
2014-11-07T17:11:26.115Z,100326
2014-11-07T17:11:44.365Z,100332
2014-11-07T17:12:02.618Z,100332
2014-11-07T17:12:20.853Z,100323
2014-11-07T17:12:39.103Z,100334
2014-11-07T17:12:57.339Z,100317
2014-11-07T17:13:15.589Z,100332
2014-11-07T17:13:33.839Z,100323
2014-11-07T17:13:52.073Z,100323
2014-11-07T17:14:10.326Z,100326
2014-11-07T17:14:28.576Z,100323
2014-11-07T17:14:46.811Z,100314
2014-11-07T17:15:05.063Z,100326
2014-11-07T17:15:23.297Z,100323
2014-11-07T17:15:41.547Z,100332
2014-11-07T17:15:59.782Z,100320
2014-11-07T17:16:18.035Z,100336
2014-11-07T17:16:36.285Z,100317
2014-11-07T17:16:54.519Z,100317
2014-11-07T17:17:12.771Z,100314
2014-11-07T17:17:31.021Z,100334
2014-11-07T17:17:49.255Z,100323
2014-11-07T17:18:07.505Z,100311
2014-11-07T17:18:25.743Z,100317
2014-11-07T17:18:43.993Z,100326
2014-11-07T17:19:02.227Z,100326
2014-11-07T17:19:20.479Z,100317
2014-11-07T17:19:38.729Z,100320
2014-11-07T17:19:56.979Z,100317
2014-11-07T17:20:15.213Z,100317
2014-11-07T17:20:33.465Z,100326
2014-11-07T17:20:51.715Z,100320
2014-11-07T17:21:09.950Z,100317
2014-11-07T17:21:28.203Z,100332
2014-11-07T17:21:46.468Z,100323
2014-11-07T17:22:04.703Z,100326
2014-11-07T17:22:22.953Z,100320
2014-11-07T17:22:41.190Z,100332
2014-11-07T17:22:59.440Z,100317
2014-11-07T17:23:17.675Z,100320
2014-11-07T17:23:35.927Z,100332
2014-11-07T17:23:54.161Z,100326
2014-11-07T17:24:12.411Z,100326
2014-11-07T17:24:30.661Z,100334
2014-11-07T17:24:48.897Z,100332
2014-11-07T17:25:07.147Z,100323
2014-11-07T17:25:25.382Z,100334
2014-11-07T17:25:43.635Z,100320
2014-11-07T17:26:01.885Z,100332
2014-11-07T17:26:20.119Z,100339
2014-11-07T17:26:38.369Z,100348
2014-11-07T17:26:56.622Z,100342
2014-11-07T17:27:14.872Z,100345
2014-11-07T17:27:33.106Z,100336
2014-11-07T17:27:51.358Z,100342
2014-11-07T17:28:09.593Z,100356
2014-11-07T17:28:27.843Z,100356
2014-11-07T17:28:46.093Z,100359
2014-11-07T17:29:04.330Z,100356
2014-11-07T17:29:22.580Z,100365
2014-11-07T17:29:40.830Z,100373
2014-11-07T17:29:59.067Z,100373
2014-11-07T17:30:17.317Z,100365
2014-11-07T17:30:35.567Z,100368
2014-11-07T17:30:53.801Z,100362
2014-11-07T17:31:12.053Z,100373
2014-11-07T17:31:30.303Z,100362
2014-11-07T17:31:48.553Z,100371
2014-11-07T17:32:06.790Z,100365
2014-11-07T17:32:25.040Z,100362
2014-11-07T17:32:43.275Z,100362
2014-11-07T17:33:01.525Z,100365
